Time;durP1;ratioP1;P1;durP2;ratioP2;P2;SDS_P1;SDS_P2;PMS_P1;PMS_P2;Temp;Humidity;BMP_temperature;BMP_pressure;BME280_temperature;BME280_humidity;BME280_pressure;Samples;Min_cycle;Max_cycle;Signal;HPM_P1;HPM_P2
2022/07/23 00:00:27;;;;;;;0.85;0.85;;;23.90;60.70;;;;;;4191276;28;20097;-61
2022/07/23 00:02:53;;;;;;;0.00;0.00;;;23.90;60.70;;;;;;4192489;28;20055;-62
2022/07/23 00:05:15;;;;;;;0.00;0.00;;;23.80;60.60;;;;;;4176215;28;20045;-62
2022/07/23 00:07:37;;;;;;;0.00;0.00;;;23.90;60.70;;;;;;4175275;28;20052;-62
2022/07/23 00:09:59;;;;;;;0.00;0.00;;;23.90;60.80;;;;;;4176179;28;20508;-62
2022/07/23 00:12:22;;;;;;;0.00;0.00;;;23.80;60.80;;;;;;4175354;28;20055;-62
2022/07/23 00:14:44;;;;;;;0.00;0.00;;;23.80;60.70;;;;;;4189763;28;20150;-61
2022/07/23 00:17:07;;;;;;;0.00;0.00;;;23.80;60.80;;;;;;4191957;28;20419;-62
2022/07/23 00:19:30;;;;;;;0.00;0.00;;;23.80;60.80;;;;;;4190822;28;20089;-61
2022/07/23 00:21:52;;;;;;;0.00;0.00;;;23.80;60.90;;;;;;4192136;28;20051;-62
2022/07/23 00:24:14;;;;;;;0.00;0.00;;;23.80;61.70;;;;;;4191700;28;20036;-62
2022/07/23 00:26:36;;;;;;;0.00;0.00;;;23.80;60.80;;;;;;4191725;28;20519;-62
2022/07/23 00:28:57;;;;;;;0.00;0.00;;;23.80;60.90;;;;;;4191902;28;20537;-62
2022/07/23 00:31:19;;;;;;;0.00;0.00;;;23.80;60.90;;;;;;4192072;28;20490;-62
2022/07/23 00:33:42;;;;;;;0.00;0.00;;;23.80;61.00;;;;;;4190127;28;20059;-61
2022/07/23 00:36:06;;;;;;;0.00;0.00;;;23.80;61.00;;;;;;4190380;28;20143;-62
2022/07/23 00:38:28;;;;;;;0.28;0.28;;;23.80;61.00;;;;;;4191808;28;20045;-62
2022/07/23 00:40:50;;;;;;;0.00;0.00;;;23.80;61.10;;;;;;4191620;28;20139;-62
2022/07/23 00:43:12;;;;;;;0.00;0.00;;;23.80;61.00;;;;;;4191977;28;20048;-61
2022/07/23 00:45:34;;;;;;;0.00;0.00;;;23.70;61.00;;;;;;4175082;28;20051;-62
2022/07/23 00:47:56;;;;;;;0.00;0.00;;;23.80;61.10;;;;;;4175279;28;20065;-61
2022/07/23 00:50:18;;;;;;;0.00;0.00;;;23.70;61.10;;;;;;4174921;28;20546;-62
2022/07/23 00:52:42;;;;;;;1.35;1.35;;;23.70;61.00;;;;;;4175404;28;20584;-61
2022/07/23 00:55:06;;;;;;;0.00;0.00;;;23.70;61.10;;;;;;4174893;28;20045;-61
2022/07/23 00:57:28;;;;;;;0.00;0.00;;;23.70;61.10;;;;;;4175700;28;20511;-61
2022/07/23 00:59:50;;;;;;;0.08;0.08;;;23.70;61.20;;;;;;4175142;28;20064;-62
2022/07/23 01:02:12;;;;;;;0.00;0.00;;;23.70;61.10;;;;;;4174109;28;20049;-61
2022/07/23 01:04:34;;;;;;;0.00;0.00;;;23.70;61.10;;;;;;4186773;28;20473;-61
2022/07/23 01:06:57;;;;;;;0.00;0.00;;;23.70;61.20;;;;;;4190322;28;20506;-62
2022/07/23 01:09:20;;;;;;;0.00;0.00;;;23.70;61.20;;;;;;4191639;28;20059;-62
2022/07/23 01:11:43;;;;;;;0.00;0.00;;;23.60;61.10;;;;;;4191023;28;20052;-61
2022/07/23 01:14:10;;;;;;;0.90;0.60;;;23.60;61.20;;;;;;4190426;28;20122;-62
2022/07/23 01:16:32;;;;;;;0.00;0.00;;;23.60;61.10;;;;;;4190322;28;20518;-61
2022/07/23 01:18:54;;;;;;;0.00;0.00;;;23.70;61.20;;;;;;4190432;28;20079;-61
2022/07/23 01:21:19;;;;;;;0.00;0.00;;;23.60;61.10;;;;;;4194750;28;20063;-61
2022/07/23 01:23:43;;;;;;;0.00;0.00;;;23.60;61.10;;;;;;4177187;28;20537;-61
2022/07/23 01:26:05;;;;;;;0.00;0.00;;;23.70;61.20;;;;;;4178385;28;20142;-62
2022/07/23 01:28:27;;;;;;;0.00;0.00;;;23.60;61.20;;;;;;4177297;28;20099;-61
2022/07/23 01:30:51;;;;;;;0.00;0.00;;;23.60;61.20;;;;;;4176675;28;20044;-61
2022/07/23 01:33:14;;;;;;;0.00;0.00;;;23.60;61.20;;;;;;4177023;28;20087;-61
2022/07/23 01:35:36;;;;;;;0.00;0.00;;;23.60;61.20;;;;;;4176901;28;20126;-61
2022/07/23 01:38:01;;;;;;;0.00;0.00;;;23.60;61.20;;;;;;4177110;28;20507;-61
2022/07/23 01:40:24;;;;;;;0.03;0.03;;;23.60;61.20;;;;;;4176605;28;20115;-60
2022/07/23 01:42:47;;;;;;;0.00;0.00;;;23.60;61.30;;;;;;4191114;28;20052;-61
2022/07/23 01:45:11;;;;;;;0.00;0.00;;;23.60;61.20;;;;;;4193082;28;20079;-61
2022/07/23 01:47:38;;;;;;;0.00;0.00;;;23.60;61.30;;;;;;4193389;28;20055;-61
2022/07/23 01:50:00;;;;;;;0.00;0.00;;;23.50;61.20;;;;;;4192523;28;20498;-62
2022/07/23 01:52:39;;;;;;;0.00;0.00;;;23.60;61.30;;;;;;4192899;28;20106;-61
2022/07/23 01:55:01;;;;;;;0.30;0.30;;;23.60;61.30;;;;;;4194265;28;20058;-61
2022/07/23 01:57:25;;;;;;;0.00;0.00;;;23.60;61.30;;;;;;4194844;28;20045;-61
2022/07/23 01:59:47;;;;;;;0.00;0.00;;;23.50;61.30;;;;;;4193016;28;20118;-61
2022/07/23 02:02:10;;;;;;;0.00;0.00;;;23.50;61.30;;;;;;4192820;28;20060;-61
2022/07/23 02:04:35;;;;;;;0.00;0.00;;;23.50;61.30;;;;;;4193306;28;20106;-61
2022/07/23 02:06:57;;;;;;;0.00;0.00;;;23.50;61.40;;;;;;4194042;28;20063;-61
2022/07/23 02:09:21;;;;;;;0.00;0.00;;;23.50;62.20;;;;;;4192741;28;20076;-61
2022/07/23 02:11:43;;;;;;;0.00;0.00;;;23.50;61.50;;;;;;4193831;28;20052;-62
2022/07/23 02:14:07;;;;;;;0.00;0.00;;;23.50;61.30;;;;;;4192598;28;20041;-61
2022/07/23 02:16:29;;;;;;;0.00;0.00;;;23.50;61.30;;;;;;4193897;28;20075;-62
2022/07/23 02:18:56;;;;;;;0.10;0.10;;;23.50;61.40;;;;;;4194501;28;20068;-61
2022/07/23 02:21:19;;;;;;;0.55;0.55;;;23.50;61.50;;;;;;4193660;28;20079;-63
2022/07/23 02:23:41;;;;;;;0.00;0.00;;;23.50;61.40;;;;;;4192937;28;20419;-61
2022/07/23 02:26:03;;;;;;;0.00;0.00;;;23.50;61.40;;;;;;4194259;28;20066;-62
2022/07/23 02:28:25;;;;;;;0.00;0.00;;;23.50;61.40;;;;;;4192963;28;20590;-62
2022/07/23 02:30:49;;;;;;;0.00;0.00;;;23.50;61.50;;;;;;4193277;28;20094;-62
2022/07/23 02:33:11;;;;;;;0.00;0.00;;;23.40;61.40;;;;;;4194047;28;20055;-62
2022/07/23 02:35:34;;;;;;;0.00;0.00;;;23.40;61.50;;;;;;4192404;28;20556;-62
2022/07/23 02:37:57;;;;;;;0.00;0.00;;;23.50;61.60;;;;;;4192938;28;20044;-62
2022/07/23 02:40:21;;;;;;;0.10;0.10;;;23.50;62.50;;;;;;4192345;28;20082;-62
2022/07/23 02:42:42;;;;;;;0.10;0.10;;;23.40;61.50;;;;;;4192378;28;20127;-62
2022/07/23 02:45:06;;;;;;;0.00;0.00;;;23.50;61.50;;;;;;4193883;28;20060;-63
2022/07/23 02:47:31;;;;;;;0.35;0.35;;;23.40;61.50;;;;;;4192392;28;20462;-62
2022/07/23 02:49:55;;;;;;;0.00;0.00;;;23.40;61.40;;;;;;4191961;28;20067;-62
2022/07/23 02:52:17;;;;;;;0.00;0.00;;;23.40;61.50;;;;;;4191919;28;20057;-61
2022/07/23 02:54:39;;;;;;;0.10;0.10;;;23.40;61.50;;;;;;4191981;28;20153;-62
2022/07/23 02:57:01;;;;;;;0.00;0.00;;;23.40;61.50;;;;;;4192386;28;20498;-62
2022/07/23 02:59:23;;;;;;;0.00;0.00;;;23.40;61.50;;;;;;4191995;28;20063;-62
2022/07/23 03:01:45;;;;;;;0.00;0.00;;;23.40;61.50;;;;;;4191965;28;20502;-61
2022/07/23 03:04:08;;;;;;;0.10;0.10;;;23.40;61.60;;;;;;4191769;28;20059;-61
2022/07/23 03:06:30;;;;;;;0.00;0.00;;;23.40;61.50;;;;;;4191721;28;20099;-62
2022/07/23 03:08:53;;;;;;;0.28;0.28;;;23.40;61.50;;;;;;4191851;28;20135;-61
2022/07/23 03:11:16;;;;;;;0.00;0.00;;;23.40;61.60;;;;;;4192758;28;20056;-71
2022/07/23 03:13:38;;;;;;;0.00;0.00;;;23.30;61.50;;;;;;4191836;28;20117;-72
2022/07/23 03:16:00;;;;;;;0.10;0.10;;;23.40;62.50;;;;;;4191603;28;20132;-71
2022/07/23 03:18:23;;;;;;;0.00;0.00;;;23.30;61.50;;;;;;4193485;28;20521;-72
2022/07/23 03:20:46;;;;;;;0.00;0.00;;;23.30;61.60;;;;;;4191930;28;20158;-71
2022/07/23 03:23:08;;;;;;;0.00;0.00;;;23.30;61.60;;;;;;4191370;28;20051;-72
2022/07/23 03:25:31;;;;;;;0.03;0.03;;;23.30;61.60;;;;;;4191849;28;20147;-71
2022/07/23 03:27:53;;;;;;;0.00;0.00;;;23.30;61.60;;;;;;4192168;28;20044;-72
2022/07/23 03:30:15;;;;;;;0.00;0.00;;;23.30;61.60;;;;;;4191445;28;20056;-70
2022/07/23 03:32:37;;;;;;;0.22;0.22;;;23.30;61.60;;;;;;4177495;28;20057;-71
2022/07/23 03:35:00;;;;;;;0.00;0.00;;;23.30;61.60;;;;;;4191493;28;20131;-71
2022/07/23 03:37:24;;;;;;;0.00;0.00;;;23.30;61.70;;;;;;4191709;28;20060;-72
2022/07/23 03:39:46;;;;;;;0.00;0.00;;;23.30;62.60;;;;;;4191264;28;20044;-72
2022/07/23 03:42:08;;;;;;;0.00;0.00;;;23.30;61.70;;;;;;4192524;28;20101;-72
2022/07/23 03:44:30;;;;;;;0.10;0.10;;;23.30;61.70;;;;;;4191281;28;20419;-71
2022/07/23 03:46:52;;;;;;;0.00;0.00;;;23.30;61.70;;;;;;4191377;28;20597;-72
2022/07/23 03:49:15;;;;;;;0.00;0.00;;;23.30;61.80;;;;;;4192232;28;20052;-71
2022/07/23 03:51:37;;;;;;;0.00;0.00;;;23.30;61.80;;;;;;4192668;28;20066;-72
2022/07/23 03:54:01;;;;;;;0.68;0.68;;;23.30;61.80;;;;;;4192577;28;20054;-71
2022/07/23 03:56:23;;;;;;;0.00;0.00;;;23.30;61.80;;;;;;4191632;28;20055;-72
2022/07/23 03:58:44;;;;;;;0.08;0.08;;;23.30;61.80;;;;;;4191889;28;20079;-71
2022/07/23 04:01:06;;;;;;;0.10;0.10;;;23.20;61.80;;;;;;4191262;28;20131;-71
2022/07/23 04:03:29;;;;;;;0.00;0.00;;;23.20;61.90;;;;;;4191305;28;20060;-71
2022/07/23 04:05:51;;;;;;;0.00;0.00;;;23.30;61.90;;;;;;4190866;28;20553;-71
2022/07/23 04:08:15;;;;;;;0.25;0.25;;;23.20;61.90;;;;;;4190840;28;20110;-71
2022/07/23 04:10:43;;;;;;;0.00;0.00;;;23.20;61.90;;;;;;4190825;28;20047;-72
2022/07/23 04:13:06;;;;;;;0.00;0.00;;;23.20;61.90;;;;;;4191199;28;20050;-72
2022/07/23 04:15:28;;;;;;;0.00;0.00;;;23.20;61.90;;;;;;4191023;28;20165;-71
2022/07/23 04:17:52;;;;;;;0.35;0.35;;;23.20;62.00;;;;;;4191241;28;20050;-72
2022/07/23 04:20:15;;;;;;;0.00;0.00;;;23.20;61.90;;;;;;4191244;28;20080;-72
2022/07/23 04:22:42;;;;;;;0.00;0.00;;;23.20;62.00;;;;;;4191394;28;20102;-72
2022/07/23 04:25:05;;;;;;;0.00;0.00;;;23.20;62.00;;;;;;4192329;28;20102;-70
2022/07/23 04:27:29;;;;;;;0.00;0.00;;;23.20;62.10;;;;;;4191165;28;20087;-72
2022/07/23 04:29:51;;;;;;;0.00;0.00;;;23.20;62.10;;;;;;4192048;28;20067;-71
2022/07/23 04:32:13;;;;;;;0.00;0.00;;;23.20;63.00;;;;;;4191139;28;20036;-72
2022/07/23 04:34:35;;;;;;;0.00;0.00;;;23.20;62.10;;;;;;4190503;28;20040;-70
2022/07/23 04:36:57;;;;;;;0.00;0.00;;;23.20;62.20;;;;;;4190422;28;20135;-71
2022/07/23 04:39:21;;;;;;;0.00;0.00;;;23.20;62.20;;;;;;4190743;28;20494;-71
2022/07/23 04:41:42;;;;;;;0.00;0.00;;;23.20;62.20;;;;;;4182099;28;20113;-70
2022/07/23 04:44:06;;;;;;;0.08;0.08;;;23.20;62.20;;;;;;4183811;28;20067;-70
2022/07/23 04:46:29;;;;;;;0.03;0.03;;;23.20;62.30;;;;;;4190218;28;20117;-70
2022/07/23 04:48:51;;;;;;;0.00;0.00;;;23.20;62.20;;;;;;4190822;28;20051;-70
2022/07/23 04:51:13;;;;;;;0.00;0.00;;;23.10;62.20;;;;;;4190556;28;20411;-71
2022/07/23 04:53:38;;;;;;;0.00;0.00;;;23.20;62.30;;;;;;4191931;28;20049;-71
2022/07/23 04:56:00;;;;;;;0.00;0.00;;;23.10;62.30;;;;;;4195799;28;20045;-70
2022/07/23 04:58:24;;;;;;;0.00;0.00;;;23.10;62.30;;;;;;4193801;28;20596;-71
2022/07/23 05:00:47;;;;;;;0.00;0.00;;;23.10;62.40;;;;;;4181125;28;20476;-70
2022/07/23 05:03:09;;;;;;;0.00;0.00;;;23.10;62.30;;;;;;4179371;28;20064;-67
2022/07/23 05:05:32;;;;;;;0.00;0.00;;;23.10;63.30;;;;;;4179744;28;20037;-71
2022/07/23 05:08:02;;;;;;;0.00;0.00;;;23.10;62.40;;;;;;4179218;28;20435;-71
2022/07/23 05:10:24;;;;;;;0.00;0.00;;;23.10;63.40;;;;;;4179383;28;20079;-63
2022/07/23 05:12:47;;;;;;;0.00;0.00;;;23.10;63.50;;;;;;4179571;28;20064;-71
2022/07/23 05:15:09;;;;;;;0.00;0.00;;;23.10;63.00;;;;;;4179306;28;20045;-71
2022/07/23 05:17:33;;;;;;;1.08;0.75;;;23.10;62.90;;;;;;4192164;28;20044;-71
2022/07/23 05:19:59;;;;;;;0.10;0.10;;;23.20;63.00;;;;;;4194949;28;20546;-71
2022/07/23 05:22:23;;;;;;;0.00;0.00;;;23.20;62.80;;;;;;4197453;28;20109;-71
2022/07/23 05:24:45;;;;;;;8.85;0.60;;;23.20;62.70;;;;;;4196003;28;20166;-70
2022/07/23 05:27:07;;;;;;;0.00;0.00;;;23.20;62.80;;;;;;4195812;28;20208;-71
2022/07/23 05:29:29;;;;;;;0.35;0.35;;;23.10;62.80;;;;;;4197001;28;20097;-70
2022/07/23 05:31:51;;;;;;;0.00;0.00;;;23.20;62.90;;;;;;4196096;28;20135;-71
2022/07/23 05:34:16;;;;;;;0.00;0.00;;;23.20;62.80;;;;;;4195980;28;20106;-71
2022/07/23 05:36:39;;;;;;;0.00;0.00;;;23.20;62.80;;;;;;4195437;28;20056;-71
2022/07/23 05:39:01;;;;;;;0.00;0.00;;;23.20;62.80;;;;;;4195603;28;20419;-70
2022/07/23 05:41:27;;;;;;;0.00;0.00;;;23.10;62.70;;;;;;4196114;28;20131;-71
2022/07/23 05:43:50;;;;;;;0.15;0.15;;;23.10;62.70;;;;;;4195535;28;20071;-71
2022/07/23 05:46:12;;;;;;;0.00;0.00;;;23.10;62.70;;;;;;4195478;28;20143;-71
2022/07/23 05:48:36;;;;;;;0.10;0.10;;;23.10;62.60;;;;;;4195385;28;20067;-61
2022/07/23 05:51:06;;;;;;;0.00;0.00;;;23.10;62.50;;;;;;4181134;28;20159;-63
2022/07/23 05:53:29;;;;;;;0.00;0.00;;;23.10;62.60;;;;;;4197403;28;20110;-61
2022/07/23 05:55:56;;;;;;;0.00;0.00;;;23.10;62.70;;;;;;4195458;28;20106;-61
2022/07/23 05:58:18;;;;;;;0.32;0.32;;;23.10;62.50;;;;;;4192999;28;20064;-61
2022/07/23 06:00:42;;;;;;;0.00;0.00;;;23.10;62.50;;;;;;4186386;27;20101;-62
2022/07/23 06:03:04;;;;;;;2.05;1.20;;;23.10;62.50;;;;;;4194607;28;20055;-61
2022/07/23 06:05:27;;;;;;;0.00;0.00;;;23.00;62.50;;;;;;4193569;28;20071;-62
2022/07/23 06:07:52;;;;;;;0.00;0.00;;;23.00;62.50;;;;;;4193184;28;20442;-61
2022/07/23 06:10:15;;;;;;;0.03;0.03;;;23.10;62.50;;;;;;4190241;28;20086;-62
2022/07/23 06:12:37;;;;;;;0.00;0.00;;;23.10;62.50;;;;;;4190878;28;20537;-61
2022/07/23 06:15:00;;;;;;;0.10;0.10;;;23.10;62.30;;;;;;4169894;28;20504;-62
2022/07/23 06:17:22;;;;;;;0.00;0.00;;;23.00;62.30;;;;;;4179651;28;20056;-61
2022/07/23 06:19:44;;;;;;;0.00;0.00;;;23.10;62.20;;;;;;4194113;28;20052;-61
2022/07/23 06:22:06;;;;;;;0.00;0.00;;;23.00;62.00;;;;;;4193813;28;20070;-61
2022/07/23 06:24:30;;;;;;;0.00;0.00;;;23.00;62.10;;;;;;4192485;28;20051;-62
2022/07/23 06:26:52;;;;;;;0.00;0.00;;;23.10;62.20;;;;;;4192868;28;20062;-62
2022/07/23 06:29:15;;;;;;;0.00;0.00;;;23.10;62.10;;;;;;4192272;28;20082;-61
2022/07/23 06:31:37;;;;;;;0.00;0.00;;;23.00;62.00;;;;;;4188104;28;20110;-61
2022/07/23 06:33:59;;;;;;;0.00;0.00;;;23.10;62.10;;;;;;4193688;28;20390;-60
2022/07/23 06:36:21;;;;;;;1.48;0.70;;;23.00;61.90;;;;;;4176153;28;20127;-61
2022/07/23 06:38:43;;;;;;;0.00;0.00;;;23.00;61.90;;;;;;4175670;28;20053;-61
2022/07/23 06:41:07;;;;;;;0.00;0.00;;;23.00;62.10;;;;;;4191275;28;20064;-60
2022/07/23 06:43:31;;;;;;;0.00;0.00;;;23.00;62.30;;;;;;4192006;28;20098;-61
2022/07/23 06:45:54;;;;;;;0.00;0.00;;;23.10;62.50;;;;;;4192685;28;20140;-70
2022/07/23 06:48:16;;;;;;;0.00;0.00;;;23.00;62.60;;;;;;4191952;28;20186;-70
2022/07/23 06:50:38;;;;;;;35.80;2.85;;;23.00;62.80;;;;;;4191806;28;20170;-70
2022/07/23 06:53:00;;;;;;;0.00;0.00;;;23.10;63.00;;;;;;4191512;28;20063;-70
2022/07/23 06:55:22;;;;;;;0.00;0.00;;;23.00;62.90;;;;;;4192203;28;20055;-70
2022/07/23 06:57:46;;;;;;;0.10;0.10;;;23.00;63.10;;;;;;4191097;28;20056;-69
2022/07/23 07:00:09;;;;;;;0.00;0.00;;;23.00;63.10;;;;;;4191346;28;20053;-70
2022/07/23 07:02:31;;;;;;;0.00;0.00;;;23.00;63.10;;;;;;4190803;28;20048;-69
2022/07/23 07:04:54;;;;;;;0.00;0.00;;;23.00;63.20;;;;;;4192113;28;20158;-70
2022/07/23 07:07:15;;;;;;;0.22;0.22;;;23.00;63.40;;;;;;4176659;28;20102;-68
2022/07/23 07:09:37;;;;;;;0.00;0.00;;;23.00;63.40;;;;;;4187718;28;20158;-70
2022/07/23 07:11:59;;;;;;;0.00;0.00;;;23.00;63.50;;;;;;4193117;28;20048;-70
2022/07/23 07:14:22;;;;;;;0.00;0.00;;;23.00;63.50;;;;;;4193293;28;20051;-70
2022/07/23 07:16:44;;;;;;;0.15;0.15;;;23.00;63.40;;;;;;4192675;28;20178;-70
2022/07/23 07:19:06;;;;;;;0.00;0.00;;;23.00;63.20;;;;;;4193024;28;20103;-71
2022/07/23 07:21:28;;;;;;;0.00;0.00;;;23.00;63.20;;;;;;4191829;28;20105;-69
2022/07/23 07:23:50;;;;;;;0.00;0.00;;;23.00;63.40;;;;;;4193326;28;20044;-70
2022/07/23 07:26:12;;;;;;;0.00;0.00;;;23.00;63.40;;;;;;4193218;28;20467;-69
2022/07/23 07:28:34;;;;;;;0.00;0.00;;;23.10;63.60;;;;;;4192690;28;20106;-71
2022/07/23 07:30:57;;;;;;;0.00;0.00;;;23.10;63.70;;;;;;4191102;28;20055;-70
2022/07/23 07:33:19;;;;;;;0.00;0.00;;;23.20;63.90;;;;;;4191729;28;20044;-60
2022/07/23 07:35:41;;;;;;;0.00;0.00;;;23.20;63.80;;;;;;4192970;28;20048;-61
2022/07/23 07:38:03;;;;;;;0.00;0.00;;;23.20;63.60;;;;;;4193075;28;20048;-61
2022/07/23 07:40:25;;;;;;;0.00;0.00;;;23.30;63.10;;;;;;4192606;28;20150;-62
2022/07/23 07:42:54;;;;;;;2.63;2.40;;;23.30;62.70;;;;;;4192853;28;20513;-61
2022/07/23 07:45:16;;;;;;;0.00;0.00;;;23.30;62.30;;;;;;4192688;28;20046;-62
2022/07/23 07:47:40;;;;;;;0.00;0.00;;;23.30;62.00;;;;;;4192620;28;20507;-61
2022/07/23 07:50:01;;;;;;;0.00;0.00;;;23.30;61.70;;;;;;4191854;28;20502;-61
2022/07/23 07:52:23;;;;;;;0.00;0.00;;;23.30;61.30;;;;;;4191991;28;20059;-61
2022/07/23 07:54:45;;;;;;;0.38;0.38;;;23.30;60.90;;;;;;4192268;28;20523;-62
2022/07/23 07:57:07;;;;;;;0.00;0.00;;;23.30;60.70;;;;;;4191423;28;20048;-61
2022/07/23 07:59:29;;;;;;;0.00;0.00;;;23.30;60.20;;;;;;4192369;28;20143;-62
2022/07/23 08:01:52;;;;;;;0.00;0.00;;;23.30;59.90;;;;;;4176171;28;20045;-61
2022/07/23 08:04:16;;;;;;;0.00;0.00;;;23.30;60.10;;;;;;4175478;28;20407;-61
2022/07/23 08:06:38;;;;;;;0.00;0.00;;;23.30;60.00;;;;;;4190994;28;20078;-61
2022/07/23 08:09:00;;;;;;;0.00;0.00;;;23.30;60.00;;;;;;4192166;28;20040;-61
2022/07/23 08:11:22;;;;;;;0.03;0.03;;;23.30;59.80;;;;;;4192449;28;20098;-61
2022/07/23 08:13:45;;;;;;;0.00;0.00;;;23.30;59.60;;;;;;4192429;28;20052;-60
2022/07/23 08:16:07;;;;;;;0.00;0.00;;;23.30;59.50;;;;;;4192359;28;20466;-61
2022/07/23 08:18:29;;;;;;;0.00;0.00;;;23.30;59.40;;;;;;4192092;28;20103;-61
2022/07/23 08:20:52;;;;;;;0.00;0.00;;;23.30;59.30;;;;;;4192273;28;20117;-62
2022/07/23 08:23:18;;;;;;;0.00;0.00;;;23.30;59.30;;;;;;4192258;28;20552;-61
2022/07/23 08:25:42;;;;;;;1.85;0.80;;;23.30;59.40;;;;;;4191817;28;20105;-61
2022/07/23 08:28:06;;;;;;;0.00;0.00;;;23.30;59.40;;;;;;4191552;28;20399;-61
2022/07/23 08:30:29;;;;;;;0.00;0.00;;;23.30;59.30;;;;;;4175020;28;20484;-62
2022/07/23 08:32:53;;;;;;;0.00;0.00;;;23.30;59.20;;;;;;4175402;28;20081;-61
2022/07/23 08:35:15;;;;;;;0.00;0.00;;;23.30;59.40;;;;;;4174710;28;20511;-62
2022/07/23 08:37:38;;;;;;;0.00;0.00;;;23.30;59.40;;;;;;4175450;28;20048;-61
2022/07/23 08:40:00;;;;;;;0.00;0.00;;;23.30;59.50;;;;;;4189785;28;20145;-62
2022/07/23 08:42:22;;;;;;;0.00;0.00;;;23.20;59.50;;;;;;4191777;28;20067;-61
2022/07/23 08:44:46;;;;;;;0.00;0.00;;;23.30;59.40;;;;;;4191445;28;20058;-61
2022/07/23 08:47:09;;;;;;;0.00;0.00;;;23.30;59.30;;;;;;4191956;28;20044;-61
2022/07/23 08:49:32;;;;;;;0.00;0.00;;;23.30;59.20;;;;;;4190722;28;20509;-61
2022/07/23 08:51:55;;;;;;;0.00;0.00;;;23.40;58.90;;;;;;4191906;28;20045;-61
2022/07/23 08:54:19;;;;;;;0.00;0.00;;;23.40;58.60;;;;;;4191211;28;20528;-61
2022/07/23 08:56:41;;;;;;;0.00;0.00;;;23.40;58.50;;;;;;4191486;28;20071;-61
2022/07/23 08:59:04;;;;;;;0.00;0.00;;;23.40;58.50;;;;;;4191428;28;20098;-61
2022/07/23 09:01:26;;;;;;;0.00;0.00;;;23.40;58.50;;;;;;4192993;28;20105;-61
2022/07/23 09:03:49;;;;;;;0.00;0.00;;;23.40;58.50;;;;;;4192767;28;20045;-61
2022/07/23 09:06:11;;;;;;;0.00;0.00;;;23.40;58.50;;;;;;4184884;28;20075;-61
2022/07/23 09:08:38;;;;;;;0.00;0.00;;;23.40;58.40;;;;;;4191976;28;20463;-61
2022/07/23 09:11:02;;;;;;;0.00;0.00;;;23.50;58.30;;;;;;4191700;28;20528;-61
2022/07/23 09:13:36;;;;;;;0.00;0.00;;;23.50;58.40;;;;;;4191762;28;20048;-61
2022/07/23 09:16:02;;;;;;;0.00;0.00;;;23.50;58.30;;;;;;4192422;28;20071;-63
2022/07/23 09:18:38;;;;;;;0.00;0.00;;;23.60;58.20;;;;;;4190799;28;20059;-63
2022/07/23 09:21:19;;;;;;;0.00;0.00;;;23.60;58.20;;;;;;4192384;28;20136;-63
2022/07/23 09:23:42;;;;;;;;;;;23.60;58.00;;;;;;4192850;28;20056;-63
2022/07/23 09:26:22;;;;;;;0.10;0.10;;;23.60;58.10;;;;;;4191557;28;19936;-63
2022/07/23 09:28:51;;;;;;;0.10;0.10;;;23.60;57.90;;;;;;4193061;28;20564;-63
2022/07/23 09:31:13;;;;;;;0.00;0.00;;;23.60;57.70;;;;;;4191846;28;20064;-63
2022/07/23 09:33:36;;;;;;;0.00;0.00;;;23.60;57.40;;;;;;4191968;28;20060;-63
2022/07/23 09:35:58;;;;;;;0.00;0.00;;;23.70;57.40;;;;;;4191338;28;20048;-63
2022/07/23 09:38:21;;;;;;;0.00;0.00;;;23.70;57.20;;;;;;4191285;28;20079;-63
2022/07/23 09:40:45;;;;;;;0.03;0.03;;;23.70;57.00;;;;;;4190257;28;20418;-63
2022/07/23 09:43:08;;;;;;;0.00;0.00;;;23.80;56.80;;;;;;4194672;28;20551;-63
2022/07/23 09:45:31;;;;;;;0.00;0.00;;;23.70;57.90;;;;;;4193647;28;20514;-63
2022/07/23 09:48:11;;;;;;;0.00;0.00;;;23.80;57.00;;;;;;4194026;28;20102;-63
2022/07/23 09:50:33;;;;;;;0.00;0.00;;;23.80;56.70;;;;;;4193912;28;20041;-62
2022/07/23 09:52:55;;;;;;;0.00;0.00;;;23.80;56.60;;;;;;4193987;28;20048;-67
2022/07/23 09:55:18;;;;;;;0.08;0.08;;;23.80;56.50;;;;;;4192621;28;20101;-68
2022/07/23 09:57:42;;;;;;;0.00;0.00;;;23.80;56.20;;;;;;4193756;28;20118;-67
2022/07/23 10:00:10;;;;;;;0.00;0.00;;;23.80;55.90;;;;;;4193830;28;20075;-68
2022/07/23 10:02:34;;;;;;;0.00;0.00;;;23.80;55.60;;;;;;4194232;28;20042;-68
2022/07/23 10:05:16;;;;;;;0.00;0.00;;;23.80;55.80;;;;;;4177758;28;20106;-68
2022/07/23 10:07:53;;;;;;;0.00;0.00;;;23.90;56.30;;;;;;4190102;28;20039;-68
2022/07/23 10:10:34;;;;;;;;;;;23.90;56.60;;;;;;4194304;28;20044;-68
2022/07/23 10:16:06;;;;;;;0.00;0.00;;;23.90;55.40;;;;;;4165610;28;20041;-68
2022/07/23 10:18:28;;;;;;;0.00;0.00;;;23.90;54.90;;;;;;4193780;28;20070;-68
2022/07/23 10:20:50;;;;;;;0.00;0.00;;;23.90;54.70;;;;;;4193821;28;20060;-68
2022/07/23 10:23:23;;;;;;;0.00;0.00;;;23.90;54.50;;;;;;4193817;28;20051;-68
2022/07/23 10:25:52;;;;;;;0.00;0.00;;;23.90;54.30;;;;;;4193806;28;20048;-69
2022/07/23 10:28:41;;;;;;;0.00;0.00;;;24.00;54.30;;;;;;4193386;28;20056;-67
2022/07/23 10:31:13;;;;;;;0.00;0.00;;;24.00;54.20;;;;;;4193975;28;20044;-67
2022/07/23 10:34:03;;;;;;;0.00;0.00;;;24.00;54.40;;;;;;4193227;28;20206;-68
2022/07/23 10:36:33;;;;;;;0.00;0.00;;;24.10;54.60;;;;;;4193354;28;20052;-68
2022/07/23 10:38:59;;;;;;;0.00;0.00;;;24.10;54.50;;;;;;4177311;28;20130;-68
2022/07/23 10:41:33;;;;;;;0.00;0.00;;;24.10;55.10;;;;;;4176988;28;20044;-67
2022/07/23 10:44:07;;;;;;;0.00;0.00;;;24.10;54.20;;;;;;4177294;28;20055;-67
2022/07/23 10:46:34;;;;;;;0.00;0.00;;;24.10;54.30;;;;;;4175710;28;20070;-67
2022/07/23 10:49:25;;;;;;;0.10;0.10;;;24.10;54.20;;;;;;4166253;28;20159;-68
2022/07/23 10:52:25;;;;;;;0.00;0.00;;;24.10;54.10;;;;;;4193249;28;20117;-67
2022/07/23 10:54:50;;;;;;;0.00;0.00;;;24.10;53.90;;;;;;4192996;28;20106;-67
2022/07/23 10:57:13;;;;;;;0.00;0.00;;;24.10;53.90;;;;;;4192096;28;20475;-68
2022/07/23 11:00:09;;;;;;;0.00;0.00;;;24.10;53.90;;;;;;4193362;28;20044;-67
2022/07/23 11:02:34;;;;;;;0.00;0.00;;;24.10;54.10;;;;;;4192095;28;20049;-69
2022/07/23 11:05:00;;;;;;;0.00;0.00;;;24.10;54.40;;;;;;4192990;28;20383;-69
2022/07/23 11:07:23;;;;;;;0.00;0.00;;;24.10;55.10;;;;;;4193246;28;20155;-69
2022/07/23 11:09:46;;;;;;;0.00;0.00;;;24.10;54.20;;;;;;4193472;28;20051;-71
2022/07/23 11:12:36;;;;;;;0.00;0.00;;;24.10;54.50;;;;;;4192741;28;20136;-71
2022/07/23 11:15:05;;;;;;;0.00;0.00;;;24.10;55.10;;;;;;4192830;28;20056;-70
2022/07/23 11:17:30;;;;;;;0.00;0.00;;;24.10;55.00;;;;;;4192211;28;20060;-70
2022/07/23 11:20:16;;;;;;;4.63;1.45;;;24.10;54.80;;;;;;4191878;28;20140;-70
2022/07/23 11:22:39;;;;;;;0.00;0.00;;;24.10;54.70;;;;;;4193140;28;20056;-71
2022/07/23 11:25:01;;;;;;;0.00;0.00;;;24.20;54.60;;;;;;4192919;28;20045;-70
2022/07/23 11:27:38;;;;;;;0.00;0.00;;;24.20;54.60;;;;;;4193339;28;20051;-70
2022/07/23 11:30:00;;;;;;;0.00;0.00;;;24.20;54.70;;;;;;4192414;28;20048;-70
2022/07/23 11:32:30;;;;;;;0.00;0.00;;;24.30;54.70;;;;;;4192951;28;20063;-69
2022/07/23 11:34:54;;;;;;;0.00;0.00;;;24.30;54.50;;;;;;4191625;28;20045;-70
2022/07/23 11:37:34;;;;;;;0.00;0.00;;;24.30;54.50;;;;;;4193058;28;20048;-70
2022/07/23 11:39:57;;;;;;;0.00;0.00;;;24.30;54.50;;;;;;4192671;28;20044;-70
2022/07/23 11:42:19;;;;;;;0.00;0.00;;;24.30;54.50;;;;;;4192626;28;20438;-70
2022/07/23 11:44:41;;;;;;;0.00;0.00;;;24.40;54.60;;;;;;4191774;28;20055;-70
2022/07/23 11:47:06;;;;;;;0.00;0.00;;;24.40;54.50;;;;;;4192564;28;20060;-69
2022/07/23 11:49:29;;;;;;;0.00;0.00;;;24.40;54.60;;;;;;4191545;28;20162;-70
2022/07/23 11:52:04;;;;;;;0.00;0.00;;;24.40;54.60;;;;;;4192934;28;20052;-70
2022/07/23 11:54:28;;;;;;;0.00;0.00;;;24.40;54.70;;;;;;4191861;28;20041;-70
2022/07/23 11:56:56;;;;;;;0.00;0.00;;;24.40;54.80;;;;;;4193049;28;20048;-70
2022/07/23 11:59:19;;;;;;;0.00;0.00;;;24.40;55.00;;;;;;4190986;28;20071;-70
2022/07/23 12:01:57;;;;;;;0.00;0.00;;;24.30;55.10;;;;;;4191143;28;20051;-63
2022/07/23 12:04:20;;;;;;;0.20;0.20;;;24.30;55.30;;;;;;4190109;28;20062;-62
2022/07/23 12:06:41;;;;;;;0.10;0.10;;;24.30;55.20;;;;;;4192278;28;20516;-63
2022/07/23 12:09:04;;;;;;;0.00;0.00;;;24.30;55.30;;;;;;4192570;28;20139;-62
2022/07/23 12:11:27;;;;;;;0.00;0.00;;;24.30;55.20;;;;;;4192351;28;20044;-63
2022/07/23 12:13:57;;;;;;;0.00;0.00;;;24.30;55.10;;;;;;4192141;28;20055;-63
2022/07/23 12:16:19;;;;;;;0.00;0.00;;;24.30;55.10;;;;;;4192462;28;20051;-63
2022/07/23 12:18:42;;;;;;;0.20;0.20;;;24.30;55.20;;;;;;4190959;28;20139;-63
2022/07/23 12:21:06;;;;;;;0.00;0.00;;;24.30;55.30;;;;;;4192505;28;20614;-63
2022/07/23 12:23:28;;;;;;;0.00;0.00;;;24.20;55.40;;;;;;4191963;28;20044;-63
2022/07/23 12:25:51;;;;;;;0.00;0.00;;;24.20;55.30;;;;;;4192125;28;20041;-63
2022/07/23 12:28:17;;;;;;;0.00;0.00;;;24.20;55.40;;;;;;4192270;28;20398;-63
2022/07/23 12:30:41;;;;;;;0.00;0.00;;;24.20;55.40;;;;;;4192179;28;20139;-63
2022/07/23 12:33:05;;;;;;;0.00;0.00;;;24.20;55.50;;;;;;4192352;28;20051;-63
2022/07/23 12:35:33;;;;;;;0.05;0.05;;;24.20;55.40;;;;;;4192469;28;20121;-63